Time;durP1;ratioP1;P1;durP2;ratioP2;P2;SDS_P1;SDS_P2;PMS_P1;PMS_P2;Temp;Humidity;BMP_temperature;BMP_pressure;BME280_temperature;BME280_humidity;BME280_pressure;Samples;Min_cycle;Max_cycle;Signal;HPM_P1;HPM_P2
2021/04/26 00:02:21;;;;;;;6.88;5.03;;;;;;;5.31;76.38;101832.31;5047231;28;20071;-83
2021/04/26 00:04:47;;;;;;;16.95;5.55;;;;;;;5.28;76.29;101824.44;5053065;28;20029;-81
2021/04/26 00:07:12;;;;;;;7.80;5.10;;;;;;;5.25;76.48;101829.81;5033984;28;20059;-82
2021/04/26 00:09:38;;;;;;;9.20;5.72;;;;;;;5.22;76.51;101825.47;5051512;28;20029;-80
2021/04/26 00:12:03;;;;;;;16.30;5.45;;;;;;;5.20;76.80;101823.72;5049397;28;20497;-82
2021/04/26 00:14:29;;;;;;;11.60;5.28;;;;;;;5.17;77.00;101826.47;5049754;28;20084;-81
2021/04/26 00:16:54;;;;;;;15.07;5.90;;;;;;;5.13;76.95;101820.34;5054777;28;20028;-80
2021/04/26 00:19:20;;;;;;;10.38;6.15;;;;;;;5.10;77.32;101815.13;5050296;28;20037;-81
2021/04/26 00:21:45;;;;;;;12.45;5.85;;;;;;;5.09;77.51;101820.47;5048368;28;20040;-82
2021/04/26 00:24:11;;;;;;;10.48;5.75;;;;;;;5.06;77.67;101816.06;5069380;28;20037;-81
2021/04/26 00:26:36;;;;;;;10.75;6.43;;;;;;;5.02;77.80;101805.56;5033240;28;20089;-80
2021/04/26 00:29:02;;;;;;;12.05;5.97;;;;;;;4.96;77.97;101805.69;5053616;28;20021;-80
2021/04/26 00:31:27;;;;;;;17.52;6.63;;;;;;;4.91;77.97;101803.16;5044557;28;20029;-80
2021/04/26 00:33:53;;;;;;;11.52;5.80;;;;;;;4.87;78.18;101807.69;5045449;28;20497;-80
2021/04/26 00:36:18;;;;;;;12.25;6.35;;;;;;;4.84;78.31;101799.75;5049976;28;20028;-81
2021/04/26 00:38:44;;;;;;;10.88;6.18;;;;;;;4.83;78.53;101794.47;5048496;28;20385;-81
2021/04/26 00:41:09;;;;;;;14.27;6.60;;;;;;;4.81;78.74;101793.66;5050151;28;20043;-82
2021/04/26 00:43:35;;;;;;;19.23;6.40;;;;;;;4.80;78.71;101790.13;5048435;28;20036;-82
2021/04/26 00:46:00;;;;;;;17.55;6.75;;;;;;;4.79;78.74;101787.47;5048514;28;20025;-82
2021/04/26 00:48:26;;;;;;;13.93;6.32;;;;;;;4.74;78.80;101787.59;5041926;28;20029;-80
2021/04/26 00:50:51;;;;;;;11.10;5.88;;;;;;;4.69;79.09;101781.47;5052041;28;20123;-80
2021/04/26 00:53:17;;;;;;;13.43;6.15;;;;;;;4.67;79.19;101778.00;5052999;28;20129;-81
2021/04/26 00:55:43;;;;;;;15.32;6.80;;;;;;;4.64;79.46;101777.19;5038962;28;20030;-84
2021/04/26 00:58:09;;;;;;;11.27;6.88;;;;;;;4.59;79.67;101777.31;5052193;28;20040;-81
2021/04/26 01:00:37;;;;;;;14.90;6.47;;;;;;;4.56;79.90;101776.50;5052585;28;20090;-82
2021/04/26 01:03:02;;;;;;;12.15;6.80;;;;;;;4.52;80.24;101767.72;5054943;28;20110;-81
2021/04/26 01:05:32;;;;;;;15.57;6.88;;;;;;;4.48;80.45;101766.03;5052738;28;20040;-81
2021/04/26 01:07:59;;;;;;;18.67;7.60;;;;;;;4.46;80.62;101762.53;5051956;28;20524;-80
2021/04/26 01:10:45;;;;;;;19.20;7.32;;;;;;;4.44;80.65;101761.72;5047964;28;20511;-80
2021/04/26 01:13:46;;;;;;;12.93;6.78;;;;;;;4.44;80.73;101756.41;5049650;28;20119;-82
2021/04/26 01:16:17;;;;;;;11.23;6.15;;;;;;;4.37;81.01;101760.97;5033780;28;20025;-80
2021/04/26 01:19:01;;;;;;;13.23;6.55;;;;;;;4.33;80.91;101751.28;5039105;28;20033;-81
2021/04/26 01:22:01;;;;;;;12.40;6.85;;;;;;;4.26;81.19;101764.78;5041127;28;20493;-80
2021/04/26 01:24:40;;;;;;;12.18;6.72;;;;;;;4.21;81.53;101759.53;5059593;28;20118;-81
2021/04/26 01:27:09;;;;;;;16.55;6.18;;;;;;;4.17;81.53;101759.66;5051121;28;20035;-81
2021/04/26 01:30:00;;;;;;;20.02;7.68;;;;;;;4.16;81.52;101764.09;5052488;28;20064;-82
2021/04/26 01:32:35;;;;;;;13.43;6.30;;;;;;;4.14;81.74;101754.38;5051738;28;20029;-83
2021/04/26 01:35:08;;;;;;;15.95;6.63;;;;;;;4.12;81.80;101762.41;5036174;28;20041;-80
2021/04/26 01:37:36;;;;;;;14.95;6.22;;;;;;;4.07;81.89;101762.47;5048112;28;20040;-80
2021/04/26 01:40:05;;;;;;;13.32;6.50;;;;;;;4.05;82.32;101760.78;5041903;28;20035;-81
2021/04/26 01:42:32;;;;;;;18.27;7.20;;;;;;;4.03;82.28;101760.81;5036207;28;20028;-80
2021/04/26 01:45:05;;;;;;;15.00;6.28;;;;;;;3.98;82.50;101757.38;5051430;28;20068;-81
2021/04/26 01:47:32;;;;;;;16.17;7.57;;;;;;;3.94;82.65;101758.34;5050621;28;20512;-81
2021/04/26 01:50:00;;;;;;;18.00;7.88;;;;;;;3.92;82.79;101761.94;5067918;28;20294;-81
2021/04/26 01:52:26;;;;;;;15.57;7.28;;;;;;;3.88;82.72;101758.47;5029401;28;20025;-80
2021/04/26 01:54:53;;;;;;;11.97;6.80;;;;;;;3.84;83.17;101751.47;5026105;28;623670;-82
2021/04/26 01:57:20;;;;;;;13.38;6.82;;;;;;;3.83;83.43;101754.13;5056077;28;20039;-80
2021/04/26 01:59:46;;;;;;;17.02;6.63;;;;;;;3.80;83.63;101749.78;5041733;28;20037;-80
2021/04/26 02:02:20;;;;;;;12.40;7.00;;;;;;;3.78;83.54;101746.28;5035329;28;20472;-80
2021/04/26 02:04:47;;;;;;;13.98;7.78;;;;;;;3.73;83.87;101756.13;5058000;28;20059;-80
2021/04/26 02:07:30;;;;;;;10.75;6.88;;;;;;;3.67;84.34;101748.28;5049462;28;20021;-80
2021/04/26 02:10:06;;;;;;;19.23;7.80;;;;;;;3.65;84.53;101742.09;5051397;28;20519;-80
2021/04/26 02:12:32;;;;;;;20.58;7.80;;;;;;;3.63;84.79;101735.97;5051917;28;20139;-80
2021/04/26 02:14:58;;;;;;;18.05;7.25;;;;;;;3.60;85.11;101741.31;5038149;28;20473;-80
2021/04/26 02:17:25;;;;;;;13.13;6.50;;;;;;;3.60;85.07;101734.25;5033854;28;20071;-80
2021/04/26 02:19:55;;;;;;;10.85;5.95;;;;;;;3.58;85.03;101736.03;5036778;28;20035;-80
2021/04/26 02:22:21;;;;;;;12.68;6.80;;;;;;;3.57;85.09;101725.47;5052590;28;20040;-81
2021/04/26 02:24:52;;;;;;;18.83;7.05;;;;;;;3.56;85.12;101721.06;5037147;28;20051;-80
2021/04/26 02:27:18;;;;;;;14.90;6.72;;;;;;;3.57;85.12;101725.47;5048669;28;20032;-80
2021/04/26 02:29:43;;;;;;;12.68;6.43;;;;;;;3.54;84.97;101731.72;5031804;28;20044;-82
2021/04/26 02:32:15;;;;;;;19.48;7.03;;;;;;;3.53;85.33;101734.38;5051243;28;20028;-81
2021/04/26 02:34:51;;;;;;;12.13;5.82;;;;;;;3.50;85.20;101723.84;5042161;28;20032;-80
2021/04/26 02:37:51;;;;;;;14.85;7.03;;;;;;;3.46;85.45;101714.16;5034150;28;20036;-80
2021/04/26 02:40:18;;;;;;;10.68;6.13;;;;;;;3.44;85.53;101716.88;5065359;28;20037;-81
2021/04/26 02:42:52;;;;;;;13.07;7.00;;;;;;;3.42;85.47;101709.81;5052032;28;20032;-80
2021/04/26 02:45:27;;;;;;;13.25;6.57;;;;;;;3.41;85.52;101713.38;5044058;28;20425;-82
2021/04/26 02:47:54;;;;;;;14.68;6.82;;;;;;;3.32;85.91;101714.44;5034887;28;20029;-80
2021/04/26 02:50:26;;;;;;;14.40;6.88;;;;;;;3.27;86.27;101711.00;5052030;28;20489;-80
2021/04/26 02:53:14;;;;;;;14.23;6.82;;;;;;;3.18;86.59;101712.03;5052021;28;20505;-80
2021/04/26 02:55:42;;;;;;;16.15;6.80;;;;;;;3.10;87.09;101708.66;5049803;28;20048;-80
2021/04/26 02:58:09;;;;;;;14.27;6.88;;;;;;;3.02;87.46;101713.22;5047170;28;20037;-80
2021/04/26 03:00:35;;;;;;;16.50;7.30;;;;;;;2.99;87.67;101710.63;5055002;28;20025;-80
2021/04/26 03:03:20;;;;;;;15.80;6.90;;;;;;;2.98;87.72;101702.69;5048980;28;20098;-80
2021/04/26 03:05:50;;;;;;;13.55;6.72;;;;;;;2.96;87.58;101709.81;5032404;28;20028;-80
2021/04/26 03:08:17;;;;;;;12.50;6.72;;;;;;;2.93;87.32;101700.13;5058217;28;20119;-80
2021/04/26 03:10:47;;;;;;;16.48;7.32;;;;;;;2.93;87.35;101697.47;5047996;28;20052;-80
2021/04/26 03:13:14;;;;;;;16.45;6.70;;;;;;;2.94;87.26;101701.00;5031692;28;20064;-81
2021/04/26 03:15:40;;;;;;;12.63;7.03;;;;;;;2.92;87.16;101693.06;5030206;28;20044;-80
2021/04/26 03:18:06;;;;;;;14.25;7.20;;;;;;;2.91;87.34;101691.31;5048854;28;20036;-80
2021/04/26 03:20:32;;;;;;;15.82;6.22;;;;;;;2.91;87.19;101686.00;5050220;28;20040;-80
2021/04/26 03:23:19;;;;;;;16.38;6.80;;;;;;;2.87;87.33;101684.31;5038149;28;20032;-80
2021/04/26 03:25:45;;;;;;;12.23;6.63;;;;;;;2.81;87.73;101679.13;5048707;28;20024;-80
2021/04/26 03:28:12;;;;;;;19.98;7.45;;;;;;;2.71;88.14;101675.75;5031412;28;20036;-80
2021/04/26 03:30:40;;;;;;;12.00;6.57;;;;;;;2.67;88.57;101670.50;5049507;28;20389;-80
2021/04/26 03:33:20;;;;;;;18.05;6.57;;;;;;;2.62;88.83;101659.13;5052201;28;20116;-81
2021/04/26 03:35:46;;;;;;;16.90;6.25;;;;;;;2.61;88.85;101660.00;5032496;28;20035;-82
2021/04/26 03:38:15;;;;;;;12.55;6.95;;;;;;;2.60;88.59;101660.91;5048606;28;20029;-80
2021/04/26 03:40:41;;;;;;;14.82;7.13;;;;;;;2.60;88.55;101658.25;5037468;28;20116;-80
2021/04/26 03:43:07;;;;;;;15.25;6.70;;;;;;;2.60;88.41;101663.56;5049378;28;20485;-80
2021/04/26 03:46:02;;;;;;;13.32;6.15;;;;;;;2.59;88.18;101656.53;5041498;28;20163;-80
2021/04/26 03:48:46;;;;;;;13.70;6.82;;;;;;;2.57;88.25;101658.31;5045172;28;20055;-81
2021/04/26 03:51:50;;;;;;;15.38;6.45;;;;;;;2.54;88.16;101653.06;5050052;28;20521;-80
2021/04/26 03:54:51;;;;;;;16.95;6.70;;;;;;;2.51;88.27;101654.00;5010428;28;20108;-80
2021/04/26 03:57:16;;;;;;;13.60;6.63;;;;;;;2.50;88.32;101654.91;5027306;28;20445;-81
2021/04/26 03:59:42;;;;;;;13.20;6.15;;;;;;;2.48;88.41;101647.84;5048812;28;20561;-82
2021/04/26 04:02:09;;;;;;;11.85;7.07;;;;;;;2.46;88.32;101649.69;5032681;28;20058;-81
2021/04/26 04:04:40;;;;;;;18.05;7.35;;;;;;;2.43;88.37;101656.75;5049259;28;20025;-80
2021/04/26 04:07:28;;;;;;;15.55;8.05;;;;;;;2.38;88.93;101658.63;5054461;28;20043;-80
2021/04/26 04:10:16;;;;;;;12.73;6.30;;;;;;;2.34;89.13;101664.88;5023705;28;20044;-80
2021/04/26 04:13:01;;;;;;;14.30;7.03;;;;;;;2.32;89.10;101650.78;5049526;28;20619;-81
2021/04/26 04:15:27;;;;;;;16.63;6.78;;;;;;;2.31;89.31;101654.31;5048176;28;20136;-80
2021/04/26 04:17:53;;;;;;;15.38;6.68;;;;;;;2.31;89.19;101650.78;5031814;28;20031;-80
2021/04/26 04:20:23;;;;;;;18.02;7.03;;;;;;;2.30;89.10;101649.91;5043308;28;20489;-80
2021/04/26 04:22:48;;;;;;;16.75;6.50;;;;;;;2.30;89.22;101655.19;5048415;28;20029;-80
2021/04/26 04:25:15;;;;;;;18.30;7.03;;;;;;;2.27;89.56;101655.25;5030806;28;20444;-80
2021/04/26 04:27:43;;;;;;;16.02;7.20;;;;;;;2.25;89.77;101659.69;5055475;28;20034;-80
2021/04/26 04:30:11;;;;;;;19.50;7.88;;;;;;;2.23;90.23;101664.13;5053749;28;20034;-80
2021/04/26 04:32:55;;;;;;;18.15;7.60;;;;;;;2.22;90.46;101661.53;5053387;28;20499;-79
2021/04/26 04:35:43;;;;;;;15.88;7.15;;;;;;;2.23;90.95;101658.84;5052730;28;20037;-79
2021/04/26 04:38:27;;;;;;;16.85;7.07;;;;;;;2.21;91.47;101660.66;5053428;28;20101;-80
2021/04/26 04:41:11;;;;;;;16.52;6.93;;;;;;;2.20;91.52;101664.19;5052272;28;20401;-80
2021/04/26 04:43:39;;;;;;;15.48;6.88;;;;;;;2.21;91.48;101670.38;5052731;28;20031;-79
2021/04/26 04:46:06;;;;;;;21.02;7.28;;;;;;;2.15;91.54;101665.16;5051796;28;20027;-80
2021/04/26 04:48:33;;;;;;;13.95;6.65;;;;;;;2.13;91.80;101667.84;5053872;28;20041;-79
2021/04/26 04:51:00;;;;;;;17.30;6.70;;;;;;;2.13;91.54;101662.53;5051310;28;20485;-82
2021/04/26 04:53:26;;;;;;;19.98;7.00;;;;;;;2.11;91.51;101659.03;5049931;28;20033;-80
2021/04/26 04:55:51;;;;;;;17.83;7.32;;;;;;;2.12;91.45;101663.44;5047676;28;20059;-80
2021/04/26 04:58:22;;;;;;;16.77;7.50;;;;;;;2.10;91.67;101667.84;5036484;28;20032;-80
2021/04/26 05:00:48;;;;;;;15.35;7.68;;;;;;;2.12;91.66;101666.06;5053821;28;20037;-80
2021/04/26 05:03:32;;;;;;;15.73;7.40;;;;;;;2.15;91.99;101663.41;5046413;28;20044;-80
2021/04/26 05:06:18;;;;;;;16.08;6.97;;;;;;;2.17;92.39;101666.88;5015494;28;20041;-80
2021/04/26 05:09:03;;;;;;;18.42;6.70;;;;;;;2.21;92.27;101660.66;5048573;28;20052;-81
2021/04/26 05:11:47;;;;;;;20.42;7.70;;;;;;;2.25;92.32;101661.47;5052431;28;20505;-80
2021/04/26 05:14:27;;;;;;;18.73;7.97;;;;;;;2.33;92.60;101657.81;5047739;28;20082;-81
2021/04/26 05:16:53;;;;;;;12.77;7.13;;;;;;;2.34;92.86;101662.22;5033147;28;20119;-81
2021/04/26 05:19:18;;;;;;;16.73;7.95;;;;;;;2.37;93.13;101656.88;5052069;28;20206;-80
2021/04/26 05:21:44;;;;;;;18.02;7.47;;;;;;;2.46;93.02;101666.44;5050982;28;20405;-81
2021/04/26 05:24:10;;;;;;;14.80;8.15;;;;;;;2.50;93.64;101668.16;5035893;28;20124;-80
2021/04/26 05:26:37;;;;;;;20.05;7.40;;;;;;;2.55;93.75;101661.00;5048852;28;20036;-82
2021/04/26 05:29:03;;;;;;;19.38;7.38;;;;;;;2.61;93.98;101658.22;5035033;28;20032;-80
2021/04/26 05:31:29;;;;;;;16.33;8.05;;;;;;;2.74;93.61;101661.56;5049348;28;20024;-80
2021/04/26 05:33:55;;;;;;;18.95;7.57;;;;;;;2.80;93.64;101662.31;5050651;28;20032;-80
2021/04/26 05:36:41;;;;;;;12.88;7.90;;;;;;;2.86;93.57;101661.34;5049163;28;20057;-80
2021/04/26 05:39:06;;;;;;;21.52;9.82;;;;;;;2.94;93.43;101662.09;5047894;28;20067;-81
2021/04/26 05:41:34;;;;;;;19.90;8.27;;;;;;;3.04;93.36;101655.72;5048924;28;20033;-81
2021/04/26 05:44:02;;;;;;;21.52;9.40;;;;;;;3.16;92.75;101663.44;5055923;28;20370;-80
2021/04/26 05:46:34;;;;;;;;;;;;;;;3.30;92.88;101670.25;5033386;28;20059;-80
2021/04/26 05:49:01;;;;;;;23.35;8.45;;;;;;;3.47;92.56;101665.50;5050697;28;19940;-80
2021/04/26 05:51:26;;;;;;;23.50;7.90;;;;;;;3.69;91.96;101672.13;5029421;28;20478;-80
2021/04/26 05:53:52;;;;;;;20.52;8.57;;;;;;;4.01;91.14;101669.63;5050021;28;20037;-80
2021/04/26 05:56:17;;;;;;;23.20;7.70;;;;;;;4.40;89.27;101661.66;5052274;28;20021;-80
2021/04/26 05:58:43;;;;;;;21.70;8.55;;;;;;;4.90;87.49;101673.72;5053258;28;20108;-79
2021/04/26 06:01:09;;;;;;;19.83;6.60;;;;;;;5.40;83.73;101672.34;5045029;28;20511;-80
2021/04/26 06:03:34;;;;;;;18.30;8.32;;;;;;;5.82;80.76;101672.03;5049987;28;20136;-80
2021/04/26 06:06:00;;;;;;;13.60;7.32;;;;;;;6.19;79.04;101672.69;5050403;28;20119;-80
2021/04/26 06:08:26;;;;;;;18.98;7.15;;;;;;;6.57;77.76;101668.81;5051740;28;20036;-80
2021/04/26 06:10:51;;;;;;;20.85;8.18;;;;;;;6.90;76.40;101661.50;5050568;28;20040;-80
2021/04/26 06:13:17;;;;;;;21.50;6.75;;;;;;;7.17;75.16;101665.00;5051035;28;20036;-81
2021/04/26 06:15:42;;;;;;;14.02;6.47;;;;;;;7.42;73.78;101670.31;5053788;28;20090;-81
2021/04/26 06:18:08;;;;;;;14.88;6.43;;;;;;;7.53;73.14;101666.34;5038374;28;20071;-80
2021/04/26 06:20:33;;;;;;;15.55;6.63;;;;;;;7.70;72.26;101655.06;5041899;28;20127;-80
2021/04/26 06:22:59;;;;;;;17.70;6.50;;;;;;;7.79;71.27;101660.03;5053854;28;20127;-80
2021/04/26 06:25:24;;;;;;;18.17;8.90;;;;;;;7.83;69.23;101652.78;5055649;28;20553;-80
2021/04/26 06:27:49;;;;;;;18.90;8.90;;;;;;;7.83;67.25;101661.69;5050224;28;20765;-80
2021/04/26 06:30:16;;;;;;;16.02;7.10;;;;;;;7.72;67.85;101659.38;5049085;28;20144;-81
2021/04/26 06:32:41;;;;;;;24.65;7.68;;;;;;;7.73;68.64;101665.59;5046461;28;20037;-82
2021/04/26 06:35:07;;;;;;;19.23;7.65;;;;;;;7.52;68.98;101661.94;5048044;28;20021;-80
2021/04/26 06:37:33;;;;;;;15.18;8.07;;;;;;;7.22;69.41;101663.06;5050450;28;20075;-80
2021/04/26 06:39:59;;;;;;;17.00;7.95;;;;;;;7.01;70.96;101664.66;5032840;28;20485;-81
2021/04/26 06:42:24;;;;;;;14.23;7.30;;;;;;;6.99;71.23;101661.16;5051967;28;20111;-79
2021/04/26 06:44:49;;;;;;;25.00;9.32;;;;;;;7.05;71.13;101665.41;5050016;28;20060;-80
2021/04/26 06:47:15;;;;;;;17.27;9.05;;;;;;;7.14;70.58;101662.44;5033000;28;20386;-80
2021/04/26 06:49:41;;;;;;;20.70;7.80;;;;;;;7.20;70.24;101657.75;5049764;28;20028;-80
2021/04/26 06:52:06;;;;;;;20.95;7.93;;;;;;;7.38;71.23;101663.38;5052176;28;20191;-80
2021/04/26 06:54:32;;;;;;;27.30;8.18;;;;;;;7.75;69.11;101658.41;5049227;28;20076;-82
2021/04/26 06:57:00;;;;;;;17.15;7.07;;;;;;;7.96;65.21;101657.56;5049715;28;20060;-80
2021/04/26 06:59:25;;;;;;;18.73;7.97;;;;;;;8.39;63.63;101653.28;5053274;28;20074;-80
2021/04/26 07:01:51;;;;;;;18.92;7.05;;;;;;;9.00;62.05;101650.72;5034351;28;20071;-80
2021/04/26 07:04:16;;;;;;;9.85;5.95;;;;;;;9.81;58.99;101658.69;5049628;28;20123;-82
2021/04/26 07:06:42;;;;;;;22.02;5.85;;;;;;;10.59;54.47;101658.53;5045972;28;20033;-82
2021/04/26 07:09:07;;;;;;;41.63;18.65;;;;;;;11.31;53.21;101662.84;5032354;28;20136;-81
2021/04/26 07:11:33;;;;;;;14.57;7.05;;;;;;;11.94;48.58;101656.81;5046734;28;20555;-82
2021/04/26 07:13:58;;;;;;;17.20;6.15;;;;;;;12.57;48.33;101655.88;5035604;28;20454;-83
2021/04/26 07:16:24;;;;;;;12.52;5.47;;;;;;;12.92;44.52;101661.91;5047572;28;20041;-84
2021/04/26 07:18:49;;;;;;;15.50;4.90;;;;;;;13.25;44.12;101652.78;5051083;28;20083;-83
2021/04/26 07:21:15;;;;;;;11.52;4.82;;;;;;;13.47;43.30;101658.59;5048106;28;20033;-82
2021/04/26 07:23:41;;;;;;;10.35;4.13;;;;;;;13.76;39.65;101660.34;5050624;28;20029;-82
2021/04/26 07:26:07;;;;;;;12.15;4.55;;;;;;;14.21;40.62;101662.94;5051012;28;20516;-81
2021/04/26 07:28:32;;;;;;;10.18;4.43;;;;;;;14.44;39.42;101654.25;5044918;28;20040;-82
2021/04/26 07:30:58;;;;;;;8.82;4.63;;;;;;;14.63;38.18;101662.84;5032403;28;20047;-83
2021/04/26 07:33:23;;;;;;;18.00;4.35;;;;;;;14.61;38.15;101656.72;5052795;28;20068;-83
2021/04/26 07:35:48;;;;;;;10.40;4.68;;;;;;;14.73;37.03;101658.59;5034558;28;20098;-83
2021/04/26 07:38:14;;;;;;;14.68;4.55;;;;;;;15.00;36.60;101663.13;5050886;28;20107;-83
2021/04/26 07:40:39;;;;;;;7.60;3.92;;;;;;;15.16;36.61;101650.28;5050103;28;20397;-82
2021/04/26 07:43:06;;;;;;;9.93;4.47;;;;;;;15.17;37.54;101647.47;5051885;28;20496;-82
2021/04/26 07:45:31;;;;;;;7.53;4.50;;;;;;;15.17;36.43;101647.47;5058620;28;20068;-82
2021/04/26 07:47:57;;;;;;;20.10;4.50;;;;;;;14.74;35.80;101656.75;5068062;28;20118;-82
2021/04/26 07:50:23;;;;;;;9.35;4.07;;;;;;;15.04;36.02;101648.41;5033215;28;20052;-82
2021/04/26 07:52:49;;;;;;;11.65;4.60;;;;;;;15.35;35.91;101648.91;5051602;28;20044;-81
2021/04/26 07:55:15;;;;;;;9.35;4.22;;;;;;;15.67;35.50;101645.81;5056315;28;20045;-84
2021/04/26 07:57:41;;;;;;;8.77;4.10;;;;;;;15.89;35.62;101635.19;5050789;28;20094;-82
2021/04/26 08:00:08;;;;;;;24.80;5.00;;;;;;;16.12;35.01;101645.19;5050277;28;20047;-83
2021/04/26 08:02:33;;;;;;;13.00;4.85;;;;;;;15.92;34.47;101634.97;5050277;28;20029;-82
2021/04/26 08:04:59;;;;;;;8.27;3.88;;;;;;;16.28;33.97;101633.25;5050913;28;20028;-82
2021/04/26 08:07:25;;;;;;;7.50;3.10;;;;;;;16.40;32.80;101646.75;5049021;28;20120;-83
2021/04/26 08:09:50;;;;;;;8.38;3.35;;;;;;;16.04;32.74;101639.50;5048152;28;20040;-83
2021/04/26 08:12:16;;;;;;;5.93;3.00;;;;;;;16.10;31.86;101644.47;5049329;28;20075;-83
2021/04/26 08:14:41;;;;;;;10.98;3.17;;;;;;;15.83;31.05;101642.88;5052910;28;20029;-85
2021/04/26 08:17:07;;;;;;;6.50;2.47;;;;;;;15.93;30.14;101642.09;5042648;28;20080;-83
2021/04/26 08:19:32;;;;;;;4.30;2.47;;;;;;;15.93;28.81;101638.50;5036139;28;20052;-82
2021/04/26 08:21:58;;;;;;;6.70;2.80;;;;;;;15.98;29.58;101639.94;5031676;28;20135;-83
2021/04/26 08:24:25;;;;;;;10.05;2.90;;;;;;;16.40;31.27;101632.34;5052119;28;20036;-83
2021/04/26 08:26:50;;;;;;;4.28;2.00;;;;;;;16.25;27.86;101641.59;5037194;28;20037;-84
2021/04/26 08:29:16;;;;;;;8.32;2.50;;;;;;;16.09;29.22;101637.31;5053212;28;20029;-84
2021/04/26 08:31:41;;;;;;;6.20;2.30;;;;;;;16.58;28.90;101633.69;5031906;28;20064;-84
2021/04/26 08:34:07;;;;;;;6.30;2.20;;;;;;;16.31;28.74;101641.13;5049561;28;20033;-82
2021/04/26 08:36:32;;;;;;;4.60;2.22;;;;;;;16.17;27.91;101629.47;5033280;28;20029;-83
2021/04/26 08:38:58;;;;;;;4.20;2.10;;;;;;;16.75;27.96;101619.75;5050434;28;20029;-83
2021/04/26 08:41:24;;;;;;;6.80;2.65;;;;;;;17.18;27.97;101630.00;5047311;28;20061;-82
2021/04/26 08:43:50;;;;;;;6.05;2.50;;;;;;;17.21;29.48;101630.66;5048039;28;20134;-86
2021/04/26 08:46:15;;;;;;;9.32;2.40;;;;;;;17.55;28.48;101618.00;5050327;28;20583;-83
2021/04/26 08:48:41;;;;;;;6.53;2.10;;;;;;;17.71;26.12;101625.84;5049432;28;20559;-83
2021/04/26 08:51:07;;;;;;;7.18;2.58;;;;;;;17.27;26.41;101626.59;5051636;28;20405;-84
2021/04/26 08:53:33;;;;;;;4.60;1.90;;;;;;;16.92;27.01;101632.00;5047606;28;20029;-83
2021/04/26 08:55:59;;;;;;;8.45;2.40;;;;;;;17.06;26.76;101639.09;5048220;28;20039;-82
2021/04/26 08:58:26;;;;;;;4.10;2.03;;;;;;;17.71;28.03;101632.09;5049431;28;20501;-83
2021/04/26 09:00:51;;;;;;;3.08;1.70;;;;;;;18.02;27.24;101624.25;5045804;28;20117;-85
2021/04/26 09:03:17;;;;;;;3.90;1.65;;;;;;;18.30;26.41;101633.72;5050294;28;20177;-83
2021/04/26 09:05:46;;;;;;;4.35;2.25;;;;;;;17.93;26.47;101633.13;5048986;28;20457;-83
2021/04/26 09:08:22;;;;;;;6.38;2.00;;;;;;;17.39;26.61;101633.78;5035340;28;20041;-82
2021/04/26 09:10:52;;;;;;;8.52;2.40;;;;;;;16.88;27.13;101623.25;5049822;28;20028;-83
2021/04/26 09:13:42;;;;;;;5.38;1.88;;;;;;;17.18;25.65;101624.59;5032571;28;20040;-82
2021/04/26 09:16:24;;;;;;;4.75;2.05;;;;;;;17.43;28.64;101618.97;5049005;28;20105;-84
2021/04/26 09:19:00;;;;;;;4.43;2.08;;;;;;;17.81;26.39;101620.53;5069142;28;20060;-83
2021/04/26 09:21:31;;;;;;;3.15;1.98;;;;;;;18.08;26.14;101612.88;5047616;28;20120;-83
2021/04/26 09:24:14;;;;;;;7.55;2.50;;;;;;;18.04;26.64;101614.97;5048435;28;20025;-83
2021/04/26 09:26:41;;;;;;;12.00;2.28;;;;;;;18.46;27.61;101599.69;5047742;28;20144;-83
2021/04/26 09:29:24;;;;;;;6.95;2.40;;;;;;;18.35;26.43;101598.84;5054577;28;20039;-83
2021/04/26 09:32:13;;;;;;;6.70;1.80;;;;;;;17.42;26.35;101598.25;5049934;28;20025;-84
2021/04/26 09:34:51;;;;;;;5.28;2.40;;;;;;;17.61;26.90;101593.13;5047717;28;20056;-82
2021/04/26 09:37:20;;;;;;;4.78;2.17;;;;;;;17.78;26.06;101587.19;5052770;28;20034;-82
2021/04/26 09:40:11;;;;;;;9.13;2.65;;;;;;;17.62;25.79;101589.41;5051654;28;20060;-82
2021/04/26 09:42:40;;;;;;;4.97;1.95;;;;;;;17.72;24.87;101590.41;5051832;28;20068;-83
2021/04/26 09:45:20;;;;;;;4.60;1.90;;;;;;;17.69;25.88;101579.81;5055322;28;20130;-82
2021/04/26 09:47:46;;;;;;;9.32;2.00;;;;;;;17.74;26.82;101576.69;5050682;28;20512;-83
2021/04/26 09:50:12;;;;;;;3.03;1.67;;;;;;;17.47;25.58;101579.72;5055363;28;20119;-84
2021/04/26 09:52:38;;;;;;;3.35;1.75;;;;;;;17.12;26.30;101578.94;5034176;28;20119;-83
2021/04/26 09:55:04;;;;;;;3.25;1.75;;;;;;;16.93;26.73;101568.66;5048753;28;20044;-83
2021/04/26 09:57:31;;;;;;;5.82;1.90;;;;;;;16.66;26.66;101568.94;5050598;28;20035;-83
2021/04/26 09:59:58;;;;;;;5.70;1.52;;;;;;;17.06;27.28;101566.72;5048126;28;20101;-83
2021/04/26 10:02:24;;;;;;;2.95;1.55;;;;;;;17.05;27.27;101577.69;5049712;28;20167;-83
2021/04/26 10:04:50;;;;;;;4.78;1.70;;;;;;;17.07;26.18;101570.31;5034807;28;20033;-83
2021/04/26 10:07:15;;;;;;;5.18;2.45;;;;;;;17.28;26.72;101557.78;5049021;28;20035;-83
2021/04/26 10:09:42;;;;;;;6.63;1.70;;;;;;;17.46;25.83;101550.88;5030563;28;20037;-83
2021/04/26 10:12:13;;;;;;;4.45;1.80;;;;;;;17.32;26.19;101549.28;5048281;28;20354;-83
2021/04/26 10:14:42;;;;;;;6.68;1.70;;;;;;;17.37;25.56;101552.47;5065564;28;20037;-84
2021/04/26 10:17:11;;;;;;;5.20;1.70;;;;;;;17.46;24.65;101550.88;5031920;28;20041;-83
2021/04/26 10:19:39;;;;;;;5.25;1.80;;;;;;;17.66;25.94;101552.88;5032618;28;20032;-83
2021/04/26 10:22:05;;;;;;;6.22;2.03;;;;;;;17.32;24.82;101532.13;5057451;28;20049;-82
2021/04/26 10:24:32;;;;;;;4.57;1.90;;;;;;;17.35;26.43;101540.00;5047655;28;20025;-83
2021/04/26 10:27:01;;;;;;;3.03;1.60;;;;;;;17.39;25.69;101538.78;5047479;28;20036;-82
2021/04/26 10:29:34;;;;;;;4.07;2.10;;;;;;;17.28;26.84;101531.47;5047738;28;20062;-83
2021/04/26 10:32:16;;;;;;;2.15;1.60;;;;;;;17.28;26.21;101530.66;5032166;28;20036;-82
2021/04/26 10:34:41;;;;;;;4.45;1.60;;;;;;;17.63;26.03;101520.56;5062975;28;20037;-83
2021/04/26 10:37:16;;;;;;;3.65;1.67;;;;;;;17.76;26.71;101521.28;5046673;28;20565;-84
2021/04/26 10:39:56;;;;;;;6.03;2.42;;;;;;;17.74;24.68;101506.97;5047536;28;20033;-81
2021/04/26 10:42:39;;;;;;;4.70;1.90;;;;;;;17.60;26.35;101509.03;5046739;28;20435;-82
2021/04/26 10:45:12;;;;;;;3.30;1.95;;;;;;;17.65;27.27;101506.88;5046247;28;20043;-82
2021/04/26 10:47:38;;;;;;;4.47;2.22;;;;;;;17.69;25.87;101509.19;5047320;28;20440;-82
2021/04/26 10:50:03;;;;;;;10.57;2.78;;;;;;;17.70;25.56;101505.50;5046627;28;20449;-82
2021/04/26 10:52:29;;;;;;;3.28;2.25;;;;;;;17.77;24.61;101501.28;5049365;28;20029;-82
2021/04/26 10:54:56;;;;;;;5.05;2.50;;;;;;;17.38;25.48;101489.06;5052297;28;20039;-83
2021/04/26 10:57:39;;;;;;;8.68;2.20;;;;;;;17.57;25.18;101488.44;5034245;28;20032;-83
2021/04/26 11:00:29;;;;;;;5.38;2.40;;;;;;;17.53;25.14;101492.38;5048026;28;20051;-82
2021/04/26 11:03:00;;;;;;;5.55;2.22;;;;;;;17.41;25.17;101493.38;5030132;28;20136;-81
2021/04/26 11:05:26;;;;;;;5.68;2.50;;;;;;;17.44;25.21;101482.28;5046335;28;20132;-81
2021/04/26 11:08:15;;;;;;;4.97;2.55;;;;;;;17.62;24.62;101469.97;5046843;28;20092;-82
2021/04/26 11:10:50;;;;;;;3.88;2.53;;;;;;;17.75;23.53;101464.38;5026001;28;20037;-83
2021/04/26 11:13:34;;;;;;;2.75;1.90;;;;;;;17.59;24.17;101464.72;5047502;28;20561;-83
2021/04/26 11:16:02;;;;;;;;;;;;;;;17.49;25.14;101463.78;5047945;28;20043;-83
2021/04/26 11:18:28;;;;;;;5.63;2.35;;;;;;;17.42;24.19;101467.09;5042829;28;19916;-82
2021/04/26 11:20:53;;;;;;;6.18;2.10;;;;;;;17.47;25.94;101462.16;5046285;28;20039;-83
2021/04/26 11:23:40;;;;;;;5.82;2.72;;;;;;;17.36;25.04;101449.47;5043190;28;20043;-82
2021/04/26 11:26:23;;;;;;;6.55;2.67;;;;;;;17.43;25.79;101447.13;5047935;28;20153;-83
2021/04/26 11:29:01;;;;;;;8.07;3.38;;;;;;;17.54;26.16;101456.09;5049448;28;20025;-82
2021/04/26 11:31:42;;;;;;;5.00;2.95;;;;;;;17.30;23.46;101441.81;5044045;28;20040;-83
2021/04/26 11:34:12;;;;;;;7.97;2.35;;;;;;;17.25;24.56;101425.06;5041925;28;20040;-83
2021/04/26 11:36:39;;;;;;;6.13;3.20;;;;;;;17.28;24.26;101427.53;5062647;28;20534;-82
2021/04/26 11:39:07;;;;;;;9.95;3.05;;;;;;;17.57;26.53;101419.72;5050257;28;20501;-82